Aviation Digital Data Service (ADDS)

Output produced by METARs form (1714 UTC 24 June 2019)
found at http://www.aviationweather.gov/metar/data/
 
METAR text: ULLI 241700Z 31008MPS 9999 FEW046 19/09 Q1026 R88/090060 NOSIG
Conditions at: ULLI (ST PETERSBURG , RU) observed 1700 UTC 24 June 2019
Temperature: 19.0°C (66°F)
Dewpoint: 9.0°C (48°F) [RH = 52%]
Pressure (altimeter): 30.30 inches Hg (1026.0 mb)
Winds: from the NW (310 degrees) at 18 MPH (16 knots; 8.2 m/s)
Visibility: 6 or more miles (10+ km)
Ceiling: at least 12,000 feet AGL
Clouds: few clouds at 4600 feet AGL
Weather: no significant weather observed at this time

METAR text: ULLI 241630Z 30007MPS CAVOK 20/08 Q1025 R88/090060 NOSIG
Conditions at: ULLI (ST PETERSBURG , RU) observed 1630 UTC 24 June 2019
Temperature: 20.0°C (68°F)
Dewpoint: 8.0°C (46°F) [RH = 46%]
Pressure (altimeter): 30.27 inches Hg (1025.0 mb)
Winds: from the WNW (300 degrees) at 16 MPH (14 knots; 7.2 m/s)
Visibility: 6 or more miles (10+ km)
Ceiling: ceiling and visibility are OK
Clouds: unknown
Weather: no significant weather observed at this time

METAR text: ULLI 241600Z 30008MPS CAVOK 20/09 Q1025 R88/090060 NOSIG
Conditions at: ULLI (ST PETERSBURG , RU) observed 1600 UTC 24 June 2019
Temperature: 20.0°C (68°F)
Dewpoint: 9.0°C (48°F) [RH = 49%]
Pressure (altimeter): 30.27 inches Hg (1025.0 mb)
Winds: from the WNW (300 degrees) at 18 MPH (16 knots; 8.2 m/s)
Visibility: 6 or more miles (10+ km)
Ceiling: ceiling and visibility are OK
Clouds: unknown
Weather: no significant weather observed at this time

METAR text: ULLI 241530Z 30009MPS CAVOK 19/08 Q1025 R88/090060 NOSIG
Conditions at: ULLI (ST PETERSBURG , RU) observed 1530 UTC 24 June 2019
Temperature: 19.0°C (66°F)
Dewpoint: 8.0°C (46°F) [RH = 49%]
Pressure (altimeter): 30.27 inches Hg (1025.0 mb)
Winds: from the WNW (300 degrees) at 20 MPH (17 knots; 8.7 m/s)
Visibility: 6 or more miles (10+ km)
Ceiling: ceiling and visibility are OK
Clouds: unknown
Weather: no significant weather observed at this time

METAR text: ULLI 241500Z 30008MPS 9999 FEW046TCU 21/07 Q1025 R88/090060 NOSIG
Conditions at: ULLI (ST PETERSBURG , RU) observed 1500 UTC 24 June 2019
Temperature: 21.0°C (70°F)
Dewpoint: 7.0°C (45°F) [RH = 40%]
Pressure (altimeter): 30.27 inches Hg (1025.0 mb)
Winds: from the WNW (300 degrees) at 18 MPH (16 knots; 8.2 m/s)
Visibility: 6 or more miles (10+ km)
Ceiling: at least 12,000 feet AGL
Clouds: few clouds at 4600 feet AGL
Weather: no significant weather observed at this time

METAR text: ULLI 241430Z 30008MPS 9999 FEW046TCU 21/07 Q1025 R88/090060 NOSIG
Conditions at: ULLI (ST PETERSBURG , RU) observed 1430 UTC 24 June 2019
Temperature: 21.0°C (70°F)
Dewpoint: 7.0°C (45°F) [RH = 40%]
Pressure (altimeter): 30.27 inches Hg (1025.0 mb)
Winds: from the WNW (300 degrees) at 18 MPH (16 knots; 8.2 m/s)
Visibility: 6 or more miles (10+ km)
Ceiling: at least 12,000 feet AGL
Clouds: few clouds at 4600 feet AGL
Weather: no significant weather observed at this time

METAR text: ULLI 241400Z 30008MPS 9999 FEW046TCU 21/07 Q1025 R88/090060 NOSIG
Conditions at: ULLI (ST PETERSBURG , RU) observed 1400 UTC 24 June 2019
Temperature: 21.0°C (70°F)
Dewpoint: 7.0°C (45°F) [RH = 40%]
Pressure (altimeter): 30.27 inches Hg (1025.0 mb)
Winds: from the WNW (300 degrees) at 18 MPH (16 knots; 8.2 m/s)
Visibility: 6 or more miles (10+ km)
Ceiling: at least 12,000 feet AGL
Clouds: few clouds at 4600 feet AGL
Weather: no significant weather observed at this time

METAR text: ULLI 241330Z 31009MPS 9999 FEW046TCU 21/07 Q1025 R88/090060 NOSIG
Conditions at: ULLI (ST PETERSBURG , RU) observed 1330 UTC 24 June 2019
Temperature: 21.0°C (70°F)
Dewpoint: 7.0°C (45°F) [RH = 40%]
Pressure (altimeter): 30.27 inches Hg (1025.0 mb)
Winds: from the NW (310 degrees) at 20 MPH (17 knots; 8.7 m/s)
Visibility: 6 or more miles (10+ km)
Ceiling: at least 12,000 feet AGL
Clouds: few clouds at 4600 feet AGL
Weather: no significant weather observed at this time

METAR text: ULLI 241300Z 30008MPS 9999 FEW046TCU 22/08 Q1024 R88/090060 NOSIG
Conditions at: ULLI (ST PETERSBURG , RU) observed 1300 UTC 24 June 2019
Temperature: 22.0°C (72°F)
Dewpoint: 8.0°C (46°F) [RH = 41%]
Pressure (altimeter): 30.24 inches Hg (1024.0 mb)
Winds: from the WNW (300 degrees) at 18 MPH (16 knots; 8.2 m/s)
Visibility: 6 or more miles (10+ km)
Ceiling: at least 12,000 feet AGL
Clouds: few clouds at 4600 feet AGL
Weather: no significant weather observed at this time

METAR text: ULLI 241230Z 31008MPS 9999 FEW046TCU 22/08 Q1024 R88/090060 NOSIG
Conditions at: ULLI (ST PETERSBURG , RU) observed 1230 UTC 24 June 2019
Temperature: 22.0°C (72°F)
Dewpoint: 8.0°C (46°F) [RH = 41%]
Pressure (altimeter): 30.24 inches Hg (1024.0 mb)
Winds: from the NW (310 degrees) at 18 MPH (16 knots; 8.2 m/s)
Visibility: 6 or more miles (10+ km)
Ceiling: at least 12,000 feet AGL
Clouds: few clouds at 4600 feet AGL
Weather: no significant weather observed at this time

METAR text: ULLI 241200Z 31008MPS 9999 SCT046CB 22/09 Q1024 R88/090060 NOSIG
Conditions at: ULLI (ST PETERSBURG , RU) observed 1200 UTC 24 June 2019
Temperature: 22.0°C (72°F)
Dewpoint: 9.0°C (48°F) [RH = 43%]
Pressure (altimeter): 30.24 inches Hg (1024.0 mb)
Winds: from the NW (310 degrees) at 18 MPH (16 knots; 8.2 m/s)
Visibility: 6 or more miles (10+ km)
Ceiling: at least 12,000 feet AGL
Clouds: scattered clouds at 4600 feet AGL
Weather: no significant weather observed at this time

METAR text: ULLI 241130Z 31008MPS 9999 SCT046CB 22/06 Q1024 R88/090060 NOSIG
Conditions at: ULLI (ST PETERSBURG , RU) observed 1130 UTC 24 June 2019
Temperature: 22.0°C (72°F)
Dewpoint: 6.0°C (43°F) [RH = 35%]
Pressure (altimeter): 30.24 inches Hg (1024.0 mb)
Winds: from the NW (310 degrees) at 18 MPH (16 knots; 8.2 m/s)
Visibility: 6 or more miles (10+ km)
Ceiling: at least 12,000 feet AGL
Clouds: scattered clouds at 4600 feet AGL
Weather: no significant weather observed at this time

METAR text: ULLI 241100Z 29008MPS 270V330 9999 SCT046CB 22/09 Q1024 R88/090060 NOSIG
Conditions at: ULLI (ST PETERSBURG , RU) observed 1100 UTC 24 June 2019
Temperature: 22.0°C (72°F)
Dewpoint: 9.0°C (48°F) [RH = 43%]
Pressure (altimeter): 30.24 inches Hg (1024.0 mb)
Winds: from the WNW (290 degrees) at 18 MPH (16 knots; 8.2 m/s)
Visibility: 6 or more miles (10+ km)
Ceiling: at least 12,000 feet AGL
Clouds: scattered clouds at 4600 feet AGL
Weather: no significant weather observed at this time

METAR text: ULLI 241030Z 31007MPS 280V340 9999 SCT046CB 22/08 Q1024 R88/090060 NOSIG
Conditions at: ULLI (ST PETERSBURG , RU) observed 1030 UTC 24 June 2019
Temperature: 22.0°C (72°F)
Dewpoint: 8.0°C (46°F) [RH = 41%]
Pressure (altimeter): 30.24 inches Hg (1024.0 mb)
Winds: from the NW (310 degrees) at 16 MPH (14 knots; 7.2 m/s)
Visibility: 6 or more miles (10+ km)
Ceiling: at least 12,000 feet AGL
Clouds: scattered clouds at 4600 feet AGL
Weather: no significant weather observed at this time

METAR text: ULLI 241000Z 30007MPS 270V330 9999 SCT046CB 22/09 Q1024 R88/090060 NOSIG
Conditions at: ULLI (ST PETERSBURG , RU) observed 1000 UTC 24 June 2019
Temperature: 22.0°C (72°F)
Dewpoint: 9.0°C (48°F) [RH = 43%]
Pressure (altimeter): 30.24 inches Hg (1024.0 mb)
Winds: from the WNW (300 degrees) at 16 MPH (14 knots; 7.2 m/s)
Visibility: 6 or more miles (10+ km)
Ceiling: at least 12,000 feet AGL
Clouds: scattered clouds at 4600 feet AGL
Weather: no significant weather observed at this time

METAR text: ULLI 240930Z 30005MPS 270V340 9999 SCT046CB 21/08 Q1024 R88/090060 NOSIG
Conditions at: ULLI (ST PETERSBURG , RU) observed 0930 UTC 24 June 2019
Temperature: 21.0°C (70°F)
Dewpoint: 8.0°C (46°F) [RH = 43%]
Pressure (altimeter): 30.24 inches Hg (1024.0 mb)
Winds: from the WNW (300 degrees) at 12 MPH (10 knots; 5.1 m/s)
Visibility: 6 or more miles (10+ km)
Ceiling: at least 12,000 feet AGL
Clouds: scattered clouds at 4600 feet AGL
Weather: no significant weather observed at this time

METAR text: ULLI 240900Z 31005MPS 280V340 9999 BKN046TCU 20/12 Q1024 R88/090060 NOSIG
Conditions at: ULLI (ST PETERSBURG , RU) observed 0900 UTC 24 June 2019
Temperature: 20.0°C (68°F)
Dewpoint: 12.0°C (54°F) [RH = 60%]
Pressure (altimeter): 30.24 inches Hg (1024.0 mb)
Winds: from the NW (310 degrees) at 12 MPH (10 knots; 5.1 m/s)
Visibility: 6 or more miles (10+ km)
Ceiling: 4600 feet AGL
Clouds: broken clouds at 4600 feet AGL
Weather: no significant weather observed at this time

METAR text: ULLI 240830Z 32005MPS 280V360 9999 BKN045 19/08 Q1024 R88/090060 NOSIG
Conditions at: ULLI (ST PETERSBURG , RU) observed 0830 UTC 24 June 2019
Temperature: 19.0°C (66°F)
Dewpoint: 8.0°C (46°F) [RH = 49%]
Pressure (altimeter): 30.24 inches Hg (1024.0 mb)
Winds: from the NW (320 degrees) at 12 MPH (10 knots; 5.1 m/s)
Visibility: 6 or more miles (10+ km)
Ceiling: 4500 feet AGL
Clouds: broken clouds at 4500 feet AGL
Weather: no significant weather observed at this time

METAR text: ULLI 240800Z 29004MPS 230V330 9999 BKN036 21/10 Q1024 R88/090060 NOSIG
Conditions at: ULLI (ST PETERSBURG , RU) observed 0800 UTC 24 June 2019
Temperature: 21.0°C (70°F)
Dewpoint: 10.0°C (50°F) [RH = 49%]
Pressure (altimeter): 30.24 inches Hg (1024.0 mb)
Winds: from the WNW (290 degrees) at 9 MPH (8 knots; 4.1 m/s)
Visibility: 6 or more miles (10+ km)
Ceiling: 3600 feet AGL
Clouds: broken clouds at 3600 feet AGL
Weather: no significant weather observed at this time

METAR text: ULLI 240730Z 27003MPS 210V300 9999 SCT032 19/12 Q1024 R88/090060 NOSIG
Conditions at: ULLI (ST PETERSBURG , RU) observed 0730 UTC 24 June 2019
Temperature: 19.0°C (66°F)
Dewpoint: 12.0°C (54°F) [RH = 64%]
Pressure (altimeter): 30.24 inches Hg (1024.0 mb)
Winds: from the W (270 degrees) at 7 MPH (6 knots; 3.1 m/s)
Visibility: 6 or more miles (10+ km)
Ceiling: at least 12,000 feet AGL
Clouds: scattered clouds at 3200 feet AGL
Weather: no significant weather observed at this time

METAR text: ULLI 240700Z 27003MPS 200V310 9999 SCT032 19/12 Q1024 R88/090060 NOSIG
Conditions at: ULLI (ST PETERSBURG , RU) observed 0700 UTC 24 June 2019
Temperature: 19.0°C (66°F)
Dewpoint: 12.0°C (54°F) [RH = 64%]
Pressure (altimeter): 30.24 inches Hg (1024.0 mb)
Winds: from the W (270 degrees) at 7 MPH (6 knots; 3.1 m/s)
Visibility: 6 or more miles (10+ km)
Ceiling: at least 12,000 feet AGL
Clouds: scattered clouds at 3200 feet AGL
Weather: no significant weather observed at this time

METAR text: ULLI 240630Z 28003MPS 240V310 9999 FEW036 18/11 Q1023 R88/190055 NOSIG
Conditions at: ULLI (ST PETERSBURG , RU) observed 0630 UTC 24 June 2019
Temperature: 18.0°C (64°F)
Dewpoint: 11.0°C (52°F) [RH = 64%]
Pressure (altimeter): 30.21 inches Hg (1023.0 mb)
Winds: from the W (280 degrees) at 7 MPH (6 knots; 3.1 m/s)
Visibility: 6 or more miles (10+ km)
Ceiling: at least 12,000 feet AGL
Clouds: few clouds at 3600 feet AGL
Weather: no significant weather observed at this time

METAR text: ULLI 240600Z 25002MPS 210V300 9999 SCT046 18/13 Q1023 R88/190055 NOSIG
Conditions at: ULLI (ST PETERSBURG , RU) observed 0600 UTC 24 June 2019
Temperature: 18.0°C (64°F)
Dewpoint: 13.0°C (55°F) [RH = 73%]
Pressure (altimeter): 30.21 inches Hg (1023.0 mb)
Winds: from the WSW (250 degrees) at 5 MPH (4 knots; 2.1 m/s)
Visibility: 6 or more miles (10+ km)
Ceiling: at least 12,000 feet AGL
Clouds: scattered clouds at 4600 feet AGL
Weather: no significant weather observed at this time

METAR text: ULLI 240530Z 21003MPS 190V250 9999 SCT046 17/13 Q1023 R88/190055 NOSIG
Conditions at: ULLI (ST PETERSBURG , RU) observed 0530 UTC 24 June 2019
Temperature: 17.0°C (63°F)
Dewpoint: 13.0°C (55°F) [RH = 77%]
Pressure (altimeter): 30.21 inches Hg (1023.0 mb)
Winds: from the SSW (210 degrees) at 7 MPH (6 knots; 3.1 m/s)
Visibility: 6 or more miles (10+ km)
Ceiling: at least 12,000 feet AGL
Clouds: scattered clouds at 4600 feet AGL
Weather: no significant weather observed at this time

METAR text: ULLI 240500Z 22002MPS 180V250 9999 SCT046 15/11 Q1023 R88/290050 NOSIG
Conditions at: ULLI (ST PETERSBURG , RU) observed 0500 UTC 24 June 2019
Temperature: 15.0°C (59°F)
Dewpoint: 11.0°C (52°F) [RH = 77%]
Pressure (altimeter): 30.21 inches Hg (1023.0 mb)
Winds: from the SW (220 degrees) at 5 MPH (4 knots; 2.1 m/s)
Visibility: 6 or more miles (10+ km)
Ceiling: at least 12,000 feet AGL
Clouds: scattered clouds at 4600 feet AGL
Weather: no significant weather observed at this time

METAR text: ULLI 240430Z 21002MPS 160V280 9999 SCT046 14/11 Q1023 R28L/290050 NOSIG
Conditions at: ULLI (ST PETERSBURG , RU) observed 0430 UTC 24 June 2019
Temperature: 14.0°C (57°F)
Dewpoint: 11.0°C (52°F) [RH = 82%]
Pressure (altimeter): 30.21 inches Hg (1023.0 mb)
Winds: from the SSW (210 degrees) at 5 MPH (4 knots; 2.1 m/s)
Visibility: 6 or more miles (10+ km)
Ceiling: at least 12,000 feet AGL
Clouds: scattered clouds at 4600 feet AGL
Weather: no significant weather observed at this time

METAR text: ULLI 240400Z 17003MPS 130V220 9999 SCT046 13/11 Q1023 R28L/290050 NOSIG
Conditions at: ULLI (ST PETERSBURG , RU) observed 0400 UTC 24 June 2019
Temperature: 13.0°C (55°F)
Dewpoint: 11.0°C (52°F) [RH = 88%]
Pressure (altimeter): 30.21 inches Hg (1023.0 mb)
Winds: from the S (170 degrees) at 7 MPH (6 knots; 3.1 m/s)
Visibility: 6 or more miles (10+ km)
Ceiling: at least 12,000 feet AGL
Clouds: scattered clouds at 4600 feet AGL
Weather: no significant weather observed at this time

METAR text: ULLI 240330Z 17002MPS 140V230 9999 -SHRA BKN023CB OVC046 13/11 Q1023 R28L/290050 NOSIG
Conditions at: ULLI (ST PETERSBURG , RU) observed 0330 UTC 24 June 2019
Temperature: 13.0°C (55°F)
Dewpoint: 11.0°C (52°F) [RH = 88%]
Pressure (altimeter): 30.21 inches Hg (1023.0 mb)
Winds: from the S (170 degrees) at 5 MPH (4 knots; 2.1 m/s)
Visibility: 6 or more miles (10+ km)
Ceiling: 2300 feet AGL
Clouds: broken clouds at 2300 feet AGL
overcast cloud deck at 4600 feet AGL
Weather: -SHRA  (light rain showers)

METAR text: ULLI 240300Z 15002MPS 110V170 9999 -SHRA BKN033CB OVC046 13/10 Q1023 R28L/290050 NOSIG
Conditions at: ULLI (ST PETERSBURG , RU) observed 0300 UTC 24 June 2019
Temperature: 13.0°C (55°F)
Dewpoint: 10.0°C (50°F) [RH = 82%]
Pressure (altimeter): 30.21 inches Hg (1023.0 mb)
Winds: from the SSE (150 degrees) at 5 MPH (4 knots; 2.1 m/s)
Visibility: 6 or more miles (10+ km)
Ceiling: 3300 feet AGL
Clouds: broken clouds at 3300 feet AGL
overcast cloud deck at 4600 feet AGL
Weather: -SHRA  (light rain showers)

METAR text: ULLI 240230Z VRB01MPS 8000 -SHRA BKN033CB OVC046 13/10 Q1024 R28L/290050 NOSIG
Conditions at: ULLI (ST PETERSBURG , RU) observed 0230 UTC 24 June 2019
Temperature: 13.0°C (55°F)
Dewpoint: 10.0°C (50°F) [RH = 82%]
Pressure (altimeter): 30.24 inches Hg (1024.0 mb)
Winds: variable direction winds at 2 MPH (2 knots; 1.0 m/s)
Visibility: 5 miles ( 8 km)
Ceiling: 3300 feet AGL
Clouds: broken clouds at 3300 feet AGL
overcast cloud deck at 4600 feet AGL
Weather: -SHRA  (light rain showers)

METAR text: ULLI 240200Z 25002MPS 210V280 9999 BKN046 14/09 Q1023 R28L/090060 NOSIG
Conditions at: ULLI (ST PETERSBURG , RU) observed 0200 UTC 24 June 2019
Temperature: 14.0°C (57°F)
Dewpoint: 9.0°C (48°F) [RH = 72%]
Pressure (altimeter): 30.21 inches Hg (1023.0 mb)
Winds: from the WSW (250 degrees) at 5 MPH (4 knots; 2.1 m/s)
Visibility: 6 or more miles (10+ km)
Ceiling: 4600 feet AGL
Clouds: broken clouds at 4600 feet AGL
Weather: no significant weather observed at this time

METAR text: ULLI 240130Z 28003MPS CAVOK 14/07 Q1023 R28L/090060 NOSIG
Conditions at: ULLI (ST PETERSBURG , RU) observed 0130 UTC 24 June 2019
Temperature: 14.0°C (57°F)
Dewpoint: 7.0°C (45°F) [RH = 63%]
Pressure (altimeter): 30.21 inches Hg (1023.0 mb)
Winds: from the W (280 degrees) at 7 MPH (6 knots; 3.1 m/s)
Visibility: 6 or more miles (10+ km)
Ceiling: ceiling and visibility are OK
Clouds: unknown
Weather: no significant weather observed at this time

METAR text: ULLI 240100Z 27002MPS CAVOK 14/07 Q1023 R28L/090060 NOSIG
Conditions at: ULLI (ST PETERSBURG , RU) observed 0100 UTC 24 June 2019
Temperature: 14.0°C (57°F)
Dewpoint: 7.0°C (45°F) [RH = 63%]
Pressure (altimeter): 30.21 inches Hg (1023.0 mb)
Winds: from the W (270 degrees) at 5 MPH (4 knots; 2.1 m/s)
Visibility: 6 or more miles (10+ km)
Ceiling: ceiling and visibility are OK
Clouds: unknown
Weather: no significant weather observed at this time

METAR text: ULLI 240030Z 25002MPS 210V280 CAVOK 13/07 Q1022 R28L/090060 NOSIG
Conditions at: ULLI (ST PETERSBURG , RU) observed 0030 UTC 24 June 2019
Temperature: 13.0°C (55°F)
Dewpoint: 7.0°C (45°F) [RH = 67%]
Pressure (altimeter): 30.18 inches Hg (1022.0 mb)
Winds: from the WSW (250 degrees) at 5 MPH (4 knots; 2.1 m/s)
Visibility: 6 or more miles (10+ km)
Ceiling: ceiling and visibility are OK
Clouds: unknown
Weather: no significant weather observed at this time

METAR text: ULLI 240000Z 26002MPS 230V290 CAVOK 13/07 Q1023 R28L/090060 NOSIG
Conditions at: ULLI (ST PETERSBURG , RU) observed 0000 UTC 24 June 2019
Temperature: 13.0°C (55°F)
Dewpoint: 7.0°C (45°F) [RH = 67%]
Pressure (altimeter): 30.21 inches Hg (1023.0 mb)
Winds: from the W (260 degrees) at 5 MPH (4 knots; 2.1 m/s)
Visibility: 6 or more miles (10+ km)
Ceiling: ceiling and visibility are OK
Clouds: unknown
Weather: no significant weather observed at this time

METAR text: ULLI 232330Z VRB01MPS CAVOK 14/07 Q1022 R28L/090060 NOSIG
Conditions at: ULLI (ST PETERSBURG , RU) observed 2330 UTC 23 June 2019
Temperature: 14.0°C (57°F)
Dewpoint: 7.0°C (45°F) [RH = 63%]
Pressure (altimeter): 30.18 inches Hg (1022.0 mb)
Winds: variable direction winds at 2 MPH (2 knots; 1.0 m/s)
Visibility: 6 or more miles (10+ km)
Ceiling: ceiling and visibility are OK
Clouds: unknown
Weather: no significant weather observed at this time

METAR text: ULLI 232300Z VRB01MPS CAVOK 13/07 Q1022 R28L/090060 NOSIG
Conditions at: ULLI (ST PETERSBURG , RU) observed 2300 UTC 23 June 2019
Temperature: 13.0°C (55°F)
Dewpoint: 7.0°C (45°F) [RH = 67%]
Pressure (altimeter): 30.18 inches Hg (1022.0 mb)
Winds: variable direction winds at 2 MPH (2 knots; 1.0 m/s)
Visibility: 6 or more miles (10+ km)
Ceiling: ceiling and visibility are OK
Clouds: unknown
Weather: no significant weather observed at this time

METAR text: ULLI 232230Z VRB01MPS CAVOK 14/07 Q1022 R28L/090060 NOSIG
Conditions at: ULLI (ST PETERSBURG , RU) observed 2230 UTC 23 June 2019
Temperature: 14.0°C (57°F)
Dewpoint: 7.0°C (45°F) [RH = 63%]
Pressure (altimeter): 30.18 inches Hg (1022.0 mb)
Winds: variable direction winds at 2 MPH (2 knots; 1.0 m/s)
Visibility: 6 or more miles (10+ km)
Ceiling: ceiling and visibility are OK
Clouds: unknown
Weather: no significant weather observed at this time

METAR text: ULLI 232200Z 25002MPS CAVOK 14/06 Q1022 R28L/090060 NOSIG
Conditions at: ULLI (ST PETERSBURG , RU) observed 2200 UTC 23 June 2019
Temperature: 14.0°C (57°F)
Dewpoint: 6.0°C (43°F) [RH = 58%]
Pressure (altimeter): 30.18 inches Hg (1022.0 mb)
Winds: from the WSW (250 degrees) at 5 MPH (4 knots; 2.1 m/s)
Visibility: 6 or more miles (10+ km)
Ceiling: ceiling and visibility are OK
Clouds: unknown
Weather: no significant weather observed at this time

METAR text: ULLI 232130Z VRB01MPS CAVOK 15/05 Q1022 R28L/090060 NOSIG
Conditions at: ULLI (ST PETERSBURG , RU) observed 2130 UTC 23 June 2019
Temperature: 15.0°C (59°F)
Dewpoint: 5.0°C (41°F) [RH = 51%]
Pressure (altimeter): 30.18 inches Hg (1022.0 mb)
Winds: variable direction winds at 2 MPH (2 knots; 1.0 m/s)
Visibility: 6 or more miles (10+ km)
Ceiling: ceiling and visibility are OK
Clouds: unknown
Weather: no significant weather observed at this time

METAR text: ULLI 232100Z 25002MPS CAVOK 14/06 Q1022 R28L/090060 NOSIG
Conditions at: ULLI (ST PETERSBURG , RU) observed 2100 UTC 23 June 2019
Temperature: 14.0°C (57°F)
Dewpoint: 6.0°C (43°F) [RH = 58%]
Pressure (altimeter): 30.18 inches Hg (1022.0 mb)
Winds: from the WSW (250 degrees) at 5 MPH (4 knots; 2.1 m/s)
Visibility: 6 or more miles (10+ km)
Ceiling: ceiling and visibility are OK
Clouds: unknown
Weather: no significant weather observed at this time

METAR text: ULLI 232030Z 25002MPS CAVOK 14/06 Q1022 R28L/090060 NOSIG
Conditions at: ULLI (ST PETERSBURG , RU) observed 2030 UTC 23 June 2019
Temperature: 14.0°C (57°F)
Dewpoint: 6.0°C (43°F) [RH = 58%]
Pressure (altimeter): 30.18 inches Hg (1022.0 mb)
Winds: from the WSW (250 degrees) at 5 MPH (4 knots; 2.1 m/s)
Visibility: 6 or more miles (10+ km)
Ceiling: ceiling and visibility are OK
Clouds: unknown
Weather: no significant weather observed at this time

METAR text: ULLI 232000Z 25002MPS CAVOK 16/05 Q1022 R28L/090060 NOSIG
Conditions at: ULLI (ST PETERSBURG , RU) observed 2000 UTC 23 June 2019
Temperature: 16.0°C (61°F)
Dewpoint: 5.0°C (41°F) [RH = 48%]
Pressure (altimeter): 30.18 inches Hg (1022.0 mb)
Winds: from the WSW (250 degrees) at 5 MPH (4 knots; 2.1 m/s)
Visibility: 6 or more miles (10+ km)
Ceiling: ceiling and visibility are OK
Clouds: unknown
Weather: no significant weather observed at this time

METAR text: ULLI 231930Z 25002MPS CAVOK 17/05 Q1022 R28L/090060 NOSIG
Conditions at: ULLI (ST PETERSBURG , RU) observed 1930 UTC 23 June 2019
Temperature: 17.0°C (63°F)
Dewpoint: 5.0°C (41°F) [RH = 45%]
Pressure (altimeter): 30.18 inches Hg (1022.0 mb)
Winds: from the WSW (250 degrees) at 5 MPH (4 knots; 2.1 m/s)
Visibility: 6 or more miles (10+ km)
Ceiling: ceiling and visibility are OK
Clouds: unknown
Weather: no significant weather observed at this time

METAR text: ULLI 231900Z 26002MPS CAVOK 17/05 Q1021 R28L/090060 NOSIG
Conditions at: ULLI (ST PETERSBURG , RU) observed 1900 UTC 23 June 2019
Temperature: 17.0°C (63°F)
Dewpoint: 5.0°C (41°F) [RH = 45%]
Pressure (altimeter): 30.15 inches Hg (1021.0 mb)
Winds: from the W (260 degrees) at 5 MPH (4 knots; 2.1 m/s)
Visibility: 6 or more miles (10+ km)
Ceiling: ceiling and visibility are OK
Clouds: unknown
Weather: no significant weather observed at this time

METAR text: ULLI 231830Z 27003MPS CAVOK 17/05 Q1021 R28L/090060 NOSIG
Conditions at: ULLI (ST PETERSBURG , RU) observed 1830 UTC 23 June 2019
Temperature: 17.0°C (63°F)
Dewpoint: 5.0°C (41°F) [RH = 45%]
Pressure (altimeter): 30.15 inches Hg (1021.0 mb)
Winds: from the W (270 degrees) at 7 MPH (6 knots; 3.1 m/s)
Visibility: 6 or more miles (10+ km)
Ceiling: ceiling and visibility are OK
Clouds: unknown
Weather: no significant weather observed at this time

METAR text: ULLI 231800Z 28002MPS 9999 FEW033 18/04 Q1021 R28L/090060 NOSIG
Conditions at: ULLI (ST PETERSBURG , RU) observed 1800 UTC 23 June 2019
Temperature: 18.0°C (64°F)
Dewpoint: 4.0°C (39°F) [RH = 39%]
Pressure (altimeter): 30.15 inches Hg (1021.0 mb)
Winds: from the W (280 degrees) at 5 MPH (4 knots; 2.1 m/s)
Visibility: 6 or more miles (10+ km)
Ceiling: at least 12,000 feet AGL
Clouds: few clouds at 3300 feet AGL
Weather: no significant weather observed at this time

METAR text: ULLI 231730Z 27003MPS 9999 FEW033 19/05 Q1021 R28L/090060 NOSIG
Conditions at: ULLI (ST PETERSBURG , RU) observed 1730 UTC 23 June 2019
Temperature: 19.0°C (66°F)
Dewpoint: 5.0°C (41°F) [RH = 40%]
Pressure (altimeter): 30.15 inches Hg (1021.0 mb)
Winds: from the W (270 degrees) at 7 MPH (6 knots; 3.1 m/s)
Visibility: 6 or more miles (10+ km)
Ceiling: at least 12,000 feet AGL
Clouds: few clouds at 3300 feet AGL
Weather: no significant weather observed at this time

METAR text: ULLI 231700Z 27004MPS 9999 FEW033 20/08 Q1021 R28L/090060 NOSIG
Conditions at: ULLI (ST PETERSBURG , RU) observed 1700 UTC 23 June 2019
Temperature: 20.0°C (68°F)
Dewpoint: 8.0°C (46°F) [RH = 46%]
Pressure (altimeter): 30.15 inches Hg (1021.0 mb)
Winds: from the W (270 degrees) at 9 MPH (8 knots; 4.1 m/s)
Visibility: 6 or more miles (10+ km)
Ceiling: at least 12,000 feet AGL
Clouds: few clouds at 3300 feet AGL
Weather: no significant weather observed at this time

METAR text: ULLI 231630Z 32004MPS 9999 FEW033 20/06 Q1021 R88/090060 NOSIG
Conditions at: ULLI (ST PETERSBURG , RU) observed 1630 UTC 23 June 2019
Temperature: 20.0°C (68°F)
Dewpoint: 6.0°C (43°F) [RH = 40%]
Pressure (altimeter): 30.15 inches Hg (1021.0 mb)
Winds: from the NW (320 degrees) at 9 MPH (8 knots; 4.1 m/s)
Visibility: 6 or more miles (10+ km)
Ceiling: at least 12,000 feet AGL
Clouds: few clouds at 3300 feet AGL
Weather: no significant weather observed at this time

METAR text: ULLI 231600Z 31005MPS 9999 FEW033 20/06 Q1021 R88/090060 NOSIG
Conditions at: ULLI (ST PETERSBURG , RU) observed 1600 UTC 23 June 2019
Temperature: 20.0°C (68°F)
Dewpoint: 6.0°C (43°F) [RH = 40%]
Pressure (altimeter): 30.15 inches Hg (1021.0 mb)
Winds: from the NW (310 degrees) at 12 MPH (10 knots; 5.1 m/s)
Visibility: 6 or more miles (10+ km)
Ceiling: at least 12,000 feet AGL
Clouds: few clouds at 3300 feet AGL
Weather: no significant weather observed at this time

METAR text: ULLI 231530Z 32005MPS 9999 FEW033 21/05 Q1021 R88/090060 NOSIG
Conditions at: ULLI (ST PETERSBURG , RU) observed 1530 UTC 23 June 2019
Temperature: 21.0°C (70°F)
Dewpoint: 5.0°C (41°F) [RH = 35%]
Pressure (altimeter): 30.15 inches Hg (1021.0 mb)
Winds: from the NW (320 degrees) at 12 MPH (10 knots; 5.1 m/s)
Visibility: 6 or more miles (10+ km)
Ceiling: at least 12,000 feet AGL
Clouds: few clouds at 3300 feet AGL
Weather: no significant weather observed at this time

METAR text: ULLI 231500Z 31006MPS 280V340 9999 FEW033 21/06 Q1021 R88/090060 NOSIG
Conditions at: ULLI (ST PETERSBURG , RU) observed 1500 UTC 23 June 2019
Temperature: 21.0°C (70°F)
Dewpoint: 6.0°C (43°F) [RH = 38%]
Pressure (altimeter): 30.15 inches Hg (1021.0 mb)
Winds: from the NW (310 degrees) at 14 MPH (12 knots; 6.2 m/s)
Visibility: 6 or more miles (10+ km)
Ceiling: at least 12,000 feet AGL
Clouds: few clouds at 3300 feet AGL
Weather: no significant weather observed at this time

METAR text: ULLI 231430Z 29006MPS 9999 FEW033 21/05 Q1021 R88/090060 NOSIG
Conditions at: ULLI (ST PETERSBURG , RU) observed 1430 UTC 23 June 2019
Temperature: 21.0°C (70°F)
Dewpoint: 5.0°C (41°F) [RH = 35%]
Pressure (altimeter): 30.15 inches Hg (1021.0 mb)
Winds: from the WNW (290 degrees) at 14 MPH (12 knots; 6.2 m/s)
Visibility: 6 or more miles (10+ km)
Ceiling: at least 12,000 feet AGL
Clouds: few clouds at 3300 feet AGL
Weather: no significant weather observed at this time

METAR text: ULLI 231400Z 30006MPS 9999 FEW033 21/05 Q1022 R88/090060 NOSIG
Conditions at: ULLI (ST PETERSBURG , RU) observed 1400 UTC 23 June 2019
Temperature: 21.0°C (70°F)
Dewpoint: 5.0°C (41°F) [RH = 35%]
Pressure (altimeter): 30.18 inches Hg (1022.0 mb)
Winds: from the WNW (300 degrees) at 14 MPH (12 knots; 6.2 m/s)
Visibility: 6 or more miles (10+ km)
Ceiling: at least 12,000 feet AGL
Clouds: few clouds at 3300 feet AGL
Weather: no significant weather observed at this time

METAR text: ULLI 231330Z 31006MPS 9999 FEW033 21/06 Q1022 R88/090060 NOSIG
Conditions at: ULLI (ST PETERSBURG , RU) observed 1330 UTC 23 June 2019
Temperature: 21.0°C (70°F)
Dewpoint: 6.0°C (43°F) [RH = 38%]
Pressure (altimeter): 30.18 inches Hg (1022.0 mb)
Winds: from the NW (310 degrees) at 14 MPH (12 knots; 6.2 m/s)
Visibility: 6 or more miles (10+ km)
Ceiling: at least 12,000 feet AGL
Clouds: few clouds at 3300 feet AGL
Weather: no significant weather observed at this time

METAR text: ULLI 231300Z 28008MPS 9999 FEW033 21/06 Q1022 R88/090060 NOSIG
Conditions at: ULLI (ST PETERSBURG , RU) observed 1300 UTC 23 June 2019
Temperature: 21.0°C (70°F)
Dewpoint: 6.0°C (43°F) [RH = 38%]
Pressure (altimeter): 30.18 inches Hg (1022.0 mb)
Winds: from the W (280 degrees) at 18 MPH (16 knots; 8.2 m/s)
Visibility: 6 or more miles (10+ km)
Ceiling: at least 12,000 feet AGL
Clouds: few clouds at 3300 feet AGL
Weather: no significant weather observed at this time

METAR text: ULLI 231230Z 29008MPS 240V320 9999 FEW033 21/05 Q1022 R88/090060 NOSIG
Conditions at: ULLI (ST PETERSBURG , RU) observed 1230 UTC 23 June 2019
Temperature: 21.0°C (70°F)
Dewpoint: 5.0°C (41°F) [RH = 35%]
Pressure (altimeter): 30.18 inches Hg (1022.0 mb)
Winds: from the WNW (290 degrees) at 18 MPH (16 knots; 8.2 m/s)
Visibility: 6 or more miles (10+ km)
Ceiling: at least 12,000 feet AGL
Clouds: few clouds at 3300 feet AGL
Weather: no significant weather observed at this time

METAR text: ULLI 231200Z 28008MPS 240V310 9999 FEW033 21/02 Q1022 R88/090060 NOSIG
Conditions at: ULLI (ST PETERSBURG , RU) observed 1200 UTC 23 June 2019
Temperature: 21.0°C (70°F)
Dewpoint: 2.0°C (36°F) [RH = 28%]
Pressure (altimeter): 30.18 inches Hg (1022.0 mb)
Winds: from the W (280 degrees) at 18 MPH (16 knots; 8.2 m/s)
Visibility: 6 or more miles (10+ km)
Ceiling: at least 12,000 feet AGL
Clouds: few clouds at 3300 feet AGL
Weather: no significant weather observed at this time

METAR text: ULLI 231130Z 29007G13MPS 260V330 9999 FEW033 22/03 Q1022 R88/090060 NOSIG
Conditions at: ULLI (ST PETERSBURG , RU) observed 1130 UTC 23 June 2019
Temperature: 22.0°C (72°F)
Dewpoint: 3.0°C (37°F) [RH = 29%]
Pressure (altimeter): 30.18 inches Hg (1022.0 mb)
Winds: from the WNW (290 degrees) at 16 MPH (14 knots; 7.2 m/s)
gusting to 29 MPH (25 knots; 12.9 m/s)
Visibility: 6 or more miles (10+ km)
Ceiling: at least 12,000 feet AGL
Clouds: few clouds at 3300 feet AGL
Weather: no significant weather observed at this time

METAR text: ULLI 231100Z 28008MPS 9999 FEW033 22/03 Q1021 R88/090060 NOSIG
Conditions at: ULLI (ST PETERSBURG , RU) observed 1100 UTC 23 June 2019
Temperature: 22.0°C (72°F)
Dewpoint: 3.0°C (37°F) [RH = 29%]
Pressure (altimeter): 30.15 inches Hg (1021.0 mb)
Winds: from the W (280 degrees) at 18 MPH (16 knots; 8.2 m/s)
Visibility: 6 or more miles (10+ km)
Ceiling: at least 12,000 feet AGL
Clouds: few clouds at 3300 feet AGL
Weather: no significant weather observed at this time

METAR text: ULLI 231030Z 28006G12MPS 250V310 9999 FEW033 22/06 Q1021 R88/090060 NOSIG
Conditions at: ULLI (ST PETERSBURG , RU) observed 1030 UTC 23 June 2019
Temperature: 22.0°C (72°F)
Dewpoint: 6.0°C (43°F) [RH = 35%]
Pressure (altimeter): 30.15 inches Hg (1021.0 mb)
Winds: from the W (280 degrees) at 14 MPH (12 knots; 6.2 m/s)
gusting to 26 MPH (23 knots; 11.8 m/s)
Visibility: 6 or more miles (10+ km)
Ceiling: at least 12,000 feet AGL
Clouds: few clouds at 3300 feet AGL
Weather: no significant weather observed at this time

METAR text: ULLI 231000Z 29006G11MPS 240V340 9999 FEW033 21/07 Q1021 R88/090060 NOSIG
Conditions at: ULLI (ST PETERSBURG , RU) observed 1000 UTC 23 June 2019
Temperature: 21.0°C (70°F)
Dewpoint: 7.0°C (45°F) [RH = 40%]
Pressure (altimeter): 30.15 inches Hg (1021.0 mb)
Winds: from the WNW (290 degrees) at 14 MPH (12 knots; 6.2 m/s)
gusting to 24 MPH (21 knots; 10.8 m/s)
Visibility: 6 or more miles (10+ km)
Ceiling: at least 12,000 feet AGL
Clouds: few clouds at 3300 feet AGL
Weather: no significant weather observed at this time

METAR text: ULLI 230930Z 27008MPS 230V290 9999 FEW033 21/09 Q1021 R88/090060 NOSIG
Conditions at: ULLI (ST PETERSBURG , RU) observed 0930 UTC 23 June 2019
Temperature: 21.0°C (70°F)
Dewpoint: 9.0°C (48°F) [RH = 46%]
Pressure (altimeter): 30.15 inches Hg (1021.0 mb)
Winds: from the W (270 degrees) at 18 MPH (16 knots; 8.2 m/s)
Visibility: 6 or more miles (10+ km)
Ceiling: at least 12,000 feet AGL
Clouds: few clouds at 3300 feet AGL
Weather: no significant weather observed at this time

METAR text: ULLI 230900Z 29008MPS 9999 FEW033 21/06 Q1021 R88/090060 NOSIG
Conditions at: ULLI (ST PETERSBURG , RU) observed 0900 UTC 23 June 2019
Temperature: 21.0°C (70°F)
Dewpoint: 6.0°C (43°F) [RH = 38%]
Pressure (altimeter): 30.15 inches Hg (1021.0 mb)
Winds: from the WNW (290 degrees) at 18 MPH (16 knots; 8.2 m/s)
Visibility: 6 or more miles (10+ km)
Ceiling: at least 12,000 feet AGL
Clouds: few clouds at 3300 feet AGL
Weather: no significant weather observed at this time

METAR text: ULLI 230830Z 27006MPS 230V310 9999 FEW033 20/06 Q1021 R88/090060 NOSIG
Conditions at: ULLI (ST PETERSBURG , RU) observed 0830 UTC 23 June 2019
Temperature: 20.0°C (68°F)
Dewpoint: 6.0°C (43°F) [RH = 40%]
Pressure (altimeter): 30.15 inches Hg (1021.0 mb)
Winds: from the W (270 degrees) at 14 MPH (12 knots; 6.2 m/s)
Visibility: 6 or more miles (10+ km)
Ceiling: at least 12,000 feet AGL
Clouds: few clouds at 3300 feet AGL
Weather: no significant weather observed at this time

METAR text: ULLI 230800Z 29006MPS 260V320 9999 FEW033 20/07 Q1021 R88/090060 NOSIG
Conditions at: ULLI (ST PETERSBURG , RU) observed 0800 UTC 23 June 2019
Temperature: 20.0°C (68°F)
Dewpoint: 7.0°C (45°F) [RH = 43%]
Pressure (altimeter): 30.15 inches Hg (1021.0 mb)
Winds: from the WNW (290 degrees) at 14 MPH (12 knots; 6.2 m/s)
Visibility: 6 or more miles (10+ km)
Ceiling: at least 12,000 feet AGL
Clouds: few clouds at 3300 feet AGL
Weather: no significant weather observed at this time

METAR text: ULLI 230730Z 28006MPS 240V300 9999 FEW046 19/08 Q1021 R88/090060 NOSIG
Conditions at: ULLI (ST PETERSBURG , RU) observed 0730 UTC 23 June 2019
Temperature: 19.0°C (66°F)
Dewpoint: 8.0°C (46°F) [RH = 49%]
Pressure (altimeter): 30.15 inches Hg (1021.0 mb)
Winds: from the W (280 degrees) at 14 MPH (12 knots; 6.2 m/s)
Visibility: 6 or more miles (10+ km)
Ceiling: at least 12,000 feet AGL
Clouds: few clouds at 4600 feet AGL
Weather: no significant weather observed at this time

METAR text: ULLI 230700Z 26006MPS 9999 FEW046 19/10 Q1021 R88/090060 NOSIG
Conditions at: ULLI (ST PETERSBURG , RU) observed 0700 UTC 23 June 2019
Temperature: 19.0°C (66°F)
Dewpoint: 10.0°C (50°F) [RH = 56%]
Pressure (altimeter): 30.15 inches Hg (1021.0 mb)
Winds: from the W (260 degrees) at 14 MPH (12 knots; 6.2 m/s)
Visibility: 6 or more miles (10+ km)
Ceiling: at least 12,000 feet AGL
Clouds: few clouds at 4600 feet AGL
Weather: no significant weather observed at this time

METAR text: ULLI 230630Z 27005MPS 240V300 9999 FEW046 18/09 Q1021 R88/090060 NOSIG
Conditions at: ULLI (ST PETERSBURG , RU) observed 0630 UTC 23 June 2019
Temperature: 18.0°C (64°F)
Dewpoint: 9.0°C (48°F) [RH = 56%]
Pressure (altimeter): 30.15 inches Hg (1021.0 mb)
Winds: from the W (270 degrees) at 12 MPH (10 knots; 5.1 m/s)
Visibility: 6 or more miles (10+ km)
Ceiling: at least 12,000 feet AGL
Clouds: few clouds at 4600 feet AGL
Weather: no significant weather observed at this time

METAR text: ULLI 230600Z 28005MPS 9999 FEW046 18/10 Q1021 R88/090060 NOSIG
Conditions at: ULLI (ST PETERSBURG , RU) observed 0600 UTC 23 June 2019
Temperature: 18.0°C (64°F)
Dewpoint: 10.0°C (50°F) [RH = 59%]
Pressure (altimeter): 30.15 inches Hg (1021.0 mb)
Winds: from the W (280 degrees) at 12 MPH (10 knots; 5.1 m/s)
Visibility: 6 or more miles (10+ km)
Ceiling: at least 12,000 feet AGL
Clouds: few clouds at 4600 feet AGL
Weather: no significant weather observed at this time

METAR text: ULLI 230530Z 28005MPS CAVOK 17/10 Q1021 R88/090060 NOSIG
Conditions at: ULLI (ST PETERSBURG , RU) observed 0530 UTC 23 June 2019
Temperature: 17.0°C (63°F)
Dewpoint: 10.0°C (50°F) [RH = 63%]
Pressure (altimeter): 30.15 inches Hg (1021.0 mb)
Winds: from the W (280 degrees) at 12 MPH (10 knots; 5.1 m/s)
Visibility: 6 or more miles (10+ km)
Ceiling: ceiling and visibility are OK
Clouds: unknown
Weather: no significant weather observed at this time

Forecast for: ULLI (ST PETERSBURG , RU)
Text: TAF ULLI 241359Z 2415/2515 29005G10MPS 9999 BKN025
Forecast period: 1500 to 1800 UTC 24 June 2019
Forecast type: FROM: standard forecast or significant change
Winds: from the WNW (290 degrees) at 12 MPH (10 knots; 5.1 m/s)
gusting to 22 MPH (19 knots; 9.8 m/s)
Visibility: 6 or more miles 10+ km)
Ceiling: 2500 feet AGL
Clouds: broken clouds at 2500 feet AGL
Weather: no significant weather forecast for this period
Text: TEMPO 2415/2418 30006G12MPS 4000 -SHRA BKN012 BKN025CB
Forecast period: 1500 to 1800 UTC 24 June 2019
Forecast type: TEMPORARY: The following changes expected for less than half the time period
Winds: from the WNW (300 degrees) at 14 MPH (12 knots; 6.2 m/s)
gusting to 26 MPH (23 knots; 11.8 m/s)
Visibility: 2.49 miles (4.01 km)
Ceiling: 1200 feet AGL
Clouds: broken clouds at 1200 feet AGL
broken clouds at 2500 feet AGL
Weather: -SHRA  (light rain showers)
Text: BECMG 2418/2419 28003MPS
Forecast period: 1800 UTC 24 June 2019 to 1500 UTC 25 June 2019
Forecast type: BECOMING: Conditions expected to become as follows by 1900 UTC 24 June 2019
Winds: from the W (280 degrees) at 7 MPH (6 knots; 3.1 m/s)
Visibility: 6 or more miles 10+ km)
Ceiling: 2500 feet AGL
Clouds: broken clouds at 2500 feet AGL
Weather: no significant weather forecast for this period
Text: TEMPO 2510/2515 30003MPS 4000 -SHRA BKN015 BKN250CB
Forecast period: 1000 to 1500 UTC 25 June 2019
Forecast type: TEMPORARY: The following changes expected for less than half the time period
Winds: from the WNW (300 degrees) at 7 MPH (6 knots; 3.1 m/s)
Visibility: 2.49 miles (4.01 km)
Ceiling: 1500 feet AGL
Clouds: broken clouds at 1500 feet AGL
broken clouds at 25000 feet AGL
Weather: -SHRA  (light rain showers)